sensor_id;sensor_type;location;lat;lon;timestamp;pressure;altitude;pressure_sealevel;temperature;humidity
6204;BME280;3135;42.602;23.468;2022-08-19T00:01:48;92864.75;;;22.59;67.21
6204;BME280;3135;42.602;23.468;2022-08-19T00:04:16;92876.03;;;22.61;66.46
6204;BME280;3135;42.602;23.468;2022-08-19T00:06:44;92879.47;;;22.58;66.60
6204;BME280;3135;42.602;23.468;2022-08-19T00:09:13;92881.72;;;22.52;66.41
6204;BME280;3135;42.602;23.468;2022-08-19T00:11:40;92871.31;;;22.58;66.73
6204;BME280;3135;42.602;23.468;2022-08-19T00:14:08;92874.34;;;22.53;66.92
6204;BME280;3135;42.602;23.468;2022-08-19T00:16:35;92875.19;;;22.57;67.98
6204;BME280;3135;42.602;23.468;2022-08-19T00:19:02;92869.19;;;22.48;67.79
6204;BME280;3135;42.602;23.468;2022-08-19T00:21:27;92871.34;;;22.38;69.83
6204;BME280;3135;42.602;23.468;2022-08-19T00:23:57;92875.31;;;22.41;69.00
6204;BME280;3135;42.602;23.468;2022-08-19T00:26:24;92873.66;;;22.36;71.53
6204;BME280;3135;42.602;23.468;2022-08-19T00:28:50;92869.59;;;22.27;71.22
6204;BME280;3135;42.602;23.468;2022-08-19T00:31:15;92890.84;;;22.40;71.89
6204;BME280;3135;42.602;23.468;2022-08-19T00:33:41;92892.22;;;22.31;72.55
6204;BME280;3135;42.602;23.468;2022-08-19T00:36:08;92878.09;;;22.25;73.70
6204;BME280;3135;42.602;23.468;2022-08-19T00:38:36;92882.19;;;22.15;73.97
6204;BME280;3135;42.602;23.468;2022-08-19T00:41:02;92873.38;;;22.03;75.41
6204;BME280;3135;42.602;23.468;2022-08-19T00:43:28;92878.53;;;22.08;73.98
6204;BME280;3135;42.602;23.468;2022-08-19T00:45:54;92882.56;;;22.14;73.53
6204;BME280;3135;42.602;23.468;2022-08-19T00:48:20;92884.00;;;22.27;73.46
6204;BME280;3135;42.602;23.468;2022-08-19T00:50:47;92879.63;;;22.23;72.89
6204;BME280;3135;42.602;23.468;2022-08-19T00:53:16;92890.13;;;22.24;70.01
6204;BME280;3135;42.602;23.468;2022-08-19T00:55:49;92884.13;;;22.15;70.68
6204;BME280;3135;42.602;23.468;2022-08-19T00:58:19;92875.66;;;22.01;70.04
6204;BME280;3135;42.602;23.468;2022-08-19T01:00:46;92880.03;;;22.05;71.49
6204;BME280;3135;42.602;23.468;2022-08-19T01:03:15;92881.19;;;22.04;73.01
6204;BME280;3135;42.602;23.468;2022-08-19T01:05:42;92891.22;;;22.19;72.32
6204;BME280;3135;42.602;23.468;2022-08-19T01:08:09;92873.78;;;22.05;71.54
6204;BME280;3135;42.602;23.468;2022-08-19T01:10:41;92885.91;;;22.07;71.94
6204;BME280;3135;42.602;23.468;2022-08-19T01:13:08;92873.78;;;22.05;71.64
6204;BME280;3135;42.602;23.468;2022-08-19T01:15:41;92873.25;;;22.15;71.15
6204;BME280;3135;42.602;23.468;2022-08-19T01:18:10;92862.03;;;22.01;72.72
6204;BME280;3135;42.602;23.468;2022-08-19T01:20:36;92868.53;;;22.12;70.92
6204;BME280;3135;42.602;23.468;2022-08-19T01:23:02;92866.06;;;22.07;72.82
6204;BME280;3135;42.602;23.468;2022-08-19T01:25:50;92850.47;;;22.04;72.67
6204;BME280;3135;42.602;23.468;2022-08-19T01:28:23;92866.91;;;21.91;74.09
6204;BME280;3135;42.602;23.468;2022-08-19T01:30:53;92856.81;;;21.73;75.03
6204;BME280;3135;42.602;23.468;2022-08-19T01:33:20;92884.25;;;21.83;76.67
6204;BME280;3135;42.602;23.468;2022-08-19T01:35:46;92869.25;;;21.74;74.83
6204;BME280;3135;42.602;23.468;2022-08-19T01:38:26;92862.25;;;21.73;77.97
6204;BME280;3135;42.602;23.468;2022-08-19T01:40:57;92865.75;;;21.73;76.87
6204;BME280;3135;42.602;23.468;2022-08-19T01:43:23;92856.03;;;21.72;77.00
6204;BME280;3135;42.602;23.468;2022-08-19T01:45:48;92869.13;;;21.86;76.92
6204;BME280;3135;42.602;23.468;2022-08-19T01:48:14;92869.78;;;21.79;77.33
6204;BME280;3135;42.602;23.468;2022-08-19T01:50:40;92851.16;;;21.62;77.41
6204;BME280;3135;42.602;23.468;2022-08-19T01:53:09;92862.25;;;21.73;76.87
6204;BME280;3135;42.602;23.468;2022-08-19T01:55:37;92852.41;;;21.64;76.33
6204;BME280;3135;42.602;23.468;2022-08-19T01:58:05;92855.31;;;21.56;74.21
6204;BME280;3135;42.602;23.468;2022-08-19T02:00:33;92859.16;;;21.55;73.29
6204;BME280;3135;42.602;23.468;2022-08-19T02:02:59;92865.19;;;21.64;72.50
6204;BME280;3135;42.602;23.468;2022-08-19T02:05:26;92863.97;;;21.61;74.83
6204;BME280;3135;42.602;23.468;2022-08-19T02:07:55;92865.03;;;21.57;75.81
6204;BME280;3135;42.602;23.468;2022-08-19T02:10:22;92869.31;;;21.58;75.44
6204;BME280;3135;42.602;23.468;2022-08-19T02:12:48;92861.72;;;21.48;76.20
6204;BME280;3135;42.602;23.468;2022-08-19T02:15:15;92859.38;;;21.46;76.32
6204;BME280;3135;42.602;23.468;2022-08-19T02:17:42;92869.63;;;21.53;77.59
6204;BME280;3135;42.602;23.468;2022-08-19T02:20:08;92866.94;;;21.21;77.48
6204;BME280;3135;42.602;23.468;2022-08-19T02:22:34;92866.88;;;21.17;79.04
6204;BME280;3135;42.602;23.468;2022-08-19T02:25:00;92866.78;;;21.14;79.24
6204;BME280;3135;42.602;23.468;2022-08-19T02:27:26;92863.00;;;21.18;79.16
6204;BME280;3135;42.602;23.468;2022-08-19T02:29:52;92873.31;;;21.29;79.53
6204;BME280;3135;42.602;23.468;2022-08-19T02:32:18;92877.88;;;21.40;79.05
6204;BME280;3135;42.602;23.468;2022-08-19T02:34:45;92882.78;;;21.51;79.69
6204;BME280;3135;42.602;23.468;2022-08-19T02:37:10;92870.94;;;21.43;79.30
6204;BME280;3135;42.602;23.468;2022-08-19T02:39:56;92889.63;;;21.44;79.02
6204;BME280;3135;42.602;23.468;2022-08-19T02:42:21;92877.53;;;21.26;80.83
6204;BME280;3135;42.602;23.468;2022-08-19T02:44:47;92870.25;;;21.30;80.15
6204;BME280;3135;42.602;23.468;2022-08-19T02:47:12;92874.81;;;21.26;80.28
6204;BME280;3135;42.602;23.468;2022-08-19T02:49:40;92868.94;;;21.24;81.15
6204;BME280;3135;42.602;23.468;2022-08-19T02:52:06;92884.84;;;21.22;80.77
6204;BME280;3135;42.602;23.468;2022-08-19T02:54:31;92876.09;;;21.13;81.30
6204;BME280;3135;42.602;23.468;2022-08-19T02:56:56;92877.53;;;21.26;80.78
6204;BME280;3135;42.602;23.468;2022-08-19T02:59:22;92879.31;;;21.18;81.83
6204;BME280;3135;42.602;23.468;2022-08-19T03:01:47;92883.09;;;21.14;81.59
6204;BME280;3135;42.602;23.468;2022-08-19T03:04:14;92867.75;;;21.06;81.77
6204;BME280;3135;42.602;23.468;2022-08-19T03:06:43;92885.94;;;21.21;81.68
6204;BME280;3135;42.602;23.468;2022-08-19T03:09:10;92875.28;;;20.97;81.04
6204;BME280;3135;42.602;23.468;2022-08-19T03:11:37;92884.69;;;20.99;83.27
6204;BME280;3135;42.602;23.468;2022-08-19T03:14:04;92879.16;;;20.96;82.05
6204;BME280;3135;42.602;23.468;2022-08-19T03:16:31;92879.25;;;20.99;82.71
6204;BME280;3135;42.602;23.468;2022-08-19T03:18:57;92868.47;;;20.87;82.34
6204;BME280;3135;42.602;23.468;2022-08-19T03:21:31;92876.63;;;20.87;84.71
6204;BME280;3135;42.602;23.468;2022-08-19T03:23:59;92883.56;;;20.84;84.44
6204;BME280;3135;42.602;23.468;2022-08-19T03:26:24;92861.91;;;20.72;85.14
6204;BME280;3135;42.602;23.468;2022-08-19T03:28:50;92865.56;;;20.64;84.26
6204;BME280;3135;42.602;23.468;2022-08-19T03:31:18;92855.22;;;20.70;84.77
6204;BME280;3135;42.602;23.468;2022-08-19T03:33:45;92865.31;;;20.69;82.16
6204;BME280;3135;42.602;23.468;2022-08-19T03:36:16;92873.91;;;20.71;82.12
6204;BME280;3135;42.602;23.468;2022-08-19T03:38:46;92873.66;;;20.76;82.79
6204;BME280;3135;42.602;23.468;2022-08-19T03:41:15;92869.25;;;20.56;86.75
6204;BME280;3135;42.602;23.468;2022-08-19T03:43:42;92875.25;;;20.33;84.46
6204;BME280;3135;42.602;23.468;2022-08-19T03:46:13;92878.59;;;20.42;86.11
6204;BME280;3135;42.602;23.468;2022-08-19T03:48:41;92864.81;;;20.35;85.39
6204;BME280;3135;42.602;23.468;2022-08-19T03:51:14;92886.94;;;20.50;84.33
6204;BME280;3135;42.602;23.468;2022-08-19T03:53:40;92880.59;;;20.46;85.20
6204;BME280;3135;42.602;23.468;2022-08-19T03:56:08;92883.69;;;20.60;84.71
6204;BME280;3135;42.602;23.468;2022-08-19T03:58:34;92890.63;;;20.57;86.05
6204;BME280;3135;42.602;23.468;2022-08-19T04:01:00;92895.00;;;20.62;86.85
6204;BME280;3135;42.602;23.468;2022-08-19T04:03:26;92893.59;;;20.68;88.18
6204;BME280;3135;42.602;23.468;2022-08-19T04:05:52;92884.84;;;20.59;90.37
6204;BME280;3135;42.602;23.468;2022-08-19T04:08:19;92901.81;;;20.56;88.21
6204;BME280;3135;42.602;23.468;2022-08-19T04:10:48;92911.31;;;20.78;87.48
6204;BME280;3135;42.602;23.468;2022-08-19T04:13:16;92912.28;;;20.85;90.47
6204;BME280;3135;42.602;23.468;2022-08-19T04:15:43;92908.16;;;20.91;88.57
6204;BME280;3135;42.602;23.468;2022-08-19T04:18:10;92900.00;;;20.91;85.98
6204;BME280;3135;42.602;23.468;2022-08-19T04:20:44;92908.44;;;20.86;84.62
6204;BME280;3135;42.602;23.468;2022-08-19T04:23:11;92915.00;;;21.01;87.85
6204;BME280;3135;42.602;23.468;2022-08-19T04:25:42;92910.06;;;21.07;88.16
6204;BME280;3135;42.602;23.468;2022-08-19T04:28:09;92910.72;;;21.00;87.99
6204;BME280;3135;42.602;23.468;2022-08-19T04:30:40;92903.44;;;21.04;88.13
6204;BME280;3135;42.602;23.468;2022-08-19T04:33:06;92921.81;;;21.11;88.97
6204;BME280;3135;42.602;23.468;2022-08-19T04:35:40;92935.59;;;21.18;87.49
6204;BME280;3135;42.602;23.468;2022-08-19T04:38:07;92927.69;;;21.29;87.77
6204;BME280;3135;42.602;23.468;2022-08-19T04:40:33;92914.63;;;21.18;92.25
6204;BME280;3135;42.602;23.468;2022-08-19T04:43:18;92923.66;;;21.38;90.52
6204;BME280;3135;42.602;23.468;2022-08-19T04:45:44;92903.59;;;21.43;87.53
6204;BME280;3135;42.602;23.468;2022-08-19T04:48:11;92916.13;;;21.48;88.96
6204;BME280;3135;42.602;23.468;2022-08-19T04:50:40;92910.03;;;21.54;85.13
6204;BME280;3135;42.602;23.468;2022-08-19T04:53:07;92901.25;;;21.61;84.50
6204;BME280;3135;42.602;23.468;2022-08-19T04:55:32;92905.84;;;21.57;86.92
6204;BME280;3135;42.602;23.468;2022-08-19T04:57:57;92915.47;;;21.54;92.96
6204;BME280;3135;42.602;23.468;2022-08-19T05:00:23;92903.22;;;21.29;90.27
6204;BME280;3135;42.602;23.468;2022-08-19T05:02:49;92901.56;;;21.24;92.64
6204;BME280;3135;42.602;23.468;2022-08-19T05:05:15;92912.09;;;21.41;90.78
6204;BME280;3135;42.602;23.468;2022-08-19T05:07:40;92909.84;;;21.63;93.67
6204;BME280;3135;42.602;23.468;2022-08-19T05:10:06;92921.56;;;21.48;91.90
6204;BME280;3135;42.602;23.468;2022-08-19T05:12:32;92925.16;;;21.52;91.47
6204;BME280;3135;42.602;23.468;2022-08-19T05:14:58;92925.56;;;21.54;92.67
6204;BME280;3135;42.602;23.468;2022-08-19T05:17:27;92935.50;;;21.81;86.96
6204;BME280;3135;42.602;23.468;2022-08-19T05:19:53;92931.81;;;22.09;85.67
6204;BME280;3135;42.602;23.468;2022-08-19T05:22:37;92913.66;;;22.13;89.02
6204;BME280;3135;42.602;23.468;2022-08-19T05:25:12;92929.22;;;21.97;89.00
6204;BME280;3135;42.602;23.468;2022-08-19T05:27:39;92917.50;;;21.92;84.71
6204;BME280;3135;42.602;23.468;2022-08-19T05:30:05;92924.25;;;22.18;88.22
6204;BME280;3135;42.602;23.468;2022-08-19T05:32:32;92915.63;;;22.16;90.30
6204;BME280;3135;42.602;23.468;2022-08-19T05:34:57;92924.81;;;22.27;88.52
6204;BME280;3135;42.602;23.468;2022-08-19T05:37:23;92920.25;;;22.31;88.35
6204;BME280;3135;42.602;23.468;2022-08-19T05:39:51;92935.69;;;22.47;89.18
6204;BME280;3135;42.602;23.468;2022-08-19T05:42:17;92917.63;;;22.58;90.70
6204;BME280;3135;42.602;23.468;2022-08-19T05:44:45;92922.16;;;22.50;89.22
6204;BME280;3135;42.602;23.468;2022-08-19T05:47:12;92922.66;;;22.56;88.34
6204;BME280;3135;42.602;23.468;2022-08-19T05:49:37;92927.88;;;22.64;85.50
6204;BME280;3135;42.602;23.468;2022-08-19T05:52:09;92937.50;;;22.81;84.95
6204;BME280;3135;42.602;23.468;2022-08-19T05:54:37;92917.34;;;22.86;84.88
6204;BME280;3135;42.602;23.468;2022-08-19T05:57:05;92937.19;;;23.06;82.67
6204;BME280;3135;42.602;23.468;2022-08-19T05:59:31;92933.72;;;23.09;83.94
6204;BME280;3135;42.602;23.468;2022-08-19T06:01:58;92928.22;;;23.05;83.02
6204;BME280;3135;42.602;23.468;2022-08-19T06:04:24;92936.16;;;23.14;84.74
6204;BME280;3135;42.602;23.468;2022-08-19T06:06:52;92923.00;;;23.19;82.43
6204;BME280;3135;42.602;23.468;2022-08-19T06:09:18;92939.09;;;23.28;83.95
6204;BME280;3135;42.602;23.468;2022-08-19T06:11:52;92952.19;;;23.42;82.10
6204;BME280;3135;42.602;23.468;2022-08-19T06:14:22;92942.84;;;23.43;80.49
6204;BME280;3135;42.602;23.468;2022-08-19T06:16:48;92950.94;;;23.13;83.55
6204;BME280;3135;42.602;23.468;2022-08-19T06:19:18;92948.72;;;23.45;82.45
6204;BME280;3135;42.602;23.468;2022-08-19T06:21:45;92958.22;;;23.78;80.79
6204;BME280;3135;42.602;23.468;2022-08-19T06:24:16;92949.47;;;23.91;80.09
6204;BME280;3135;42.602;23.468;2022-08-19T06:26:45;92954.88;;;24.18;79.45
6204;BME280;3135;42.602;23.468;2022-08-19T06:29:13;92956.59;;;24.30;78.97
6204;BME280;3135;42.602;23.468;2022-08-19T06:31:45;92948.66;;;24.51;76.88
6204;BME280;3135;42.602;23.468;2022-08-19T06:34:12;92949.63;;;24.66;76.08
6204;BME280;3135;42.602;23.468;2022-08-19T06:36:42;92949.81;;;24.84;77.01
6204;BME280;3135;42.602;23.468;2022-08-19T06:39:14;92952.84;;;25.12;75.84
6204;BME280;3135;42.602;23.468;2022-08-19T06:41:43;92956.19;;;25.36;76.20
6204;BME280;3135;42.602;23.468;2022-08-19T06:44:09;92953.72;;;25.20;75.60
6204;BME280;3135;42.602;23.468;2022-08-19T06:46:36;92945.78;;;25.52;75.64
6204;BME280;3135;42.602;23.468;2022-08-19T06:49:02;92949.84;;;25.69;74.89
6204;BME280;3135;42.602;23.468;2022-08-19T06:51:28;92950.72;;;25.80;74.04
6204;BME280;3135;42.602;23.468;2022-08-19T06:53:55;92945.03;;;25.55;76.02
6204;BME280;3135;42.602;23.468;2022-08-19T06:56:27;92950.47;;;25.52;75.32
6204;BME280;3135;42.602;23.468;2022-08-19T06:59:10;92947.41;;;25.64;73.96
6204;BME280;3135;42.602;23.468;2022-08-19T07:01:38;92953.44;;;25.80;73.25
6204;BME280;3135;42.602;23.468;2022-08-19T07:04:06;92956.88;;;25.73;73.53
6204;BME280;3135;42.602;23.468;2022-08-19T07:06:31;92960.56;;;25.95;72.96
6204;BME280;3135;42.602;23.468;2022-08-19T07:08:58;92969.53;;;25.92;71.50
6204;BME280;3135;42.602;23.468;2022-08-19T07:11:24;92955.69;;;26.30;70.01
6204;BME280;3135;42.602;23.468;2022-08-19T07:13:49;92970.59;;;26.39;68.37
6204;BME280;3135;42.602;23.468;2022-08-19T07:16:17;92973.44;;;26.50;67.91
6204;BME280;3135;42.602;23.468;2022-08-19T07:18:48;92942.97;;;26.73;66.31
6204;BME280;3135;42.602;23.468;2022-08-19T07:21:17;92961.09;;;27.06;67.43
6204;BME280;3135;42.602;23.468;2022-08-19T07:23:43;92974.84;;;27.17;63.99
6204;BME280;3135;42.602;23.468;2022-08-19T07:26:13;92965.84;;;27.41;63.63
6204;BME280;3135;42.602;23.468;2022-08-19T07:28:40;92975.28;;;27.44;62.86
6204;BME280;3135;42.602;23.468;2022-08-19T07:31:06;92969.38;;;27.31;64.40
6204;BME280;3135;42.602;23.468;2022-08-19T07:33:32;92963.94;;;27.74;63.73
6204;BME280;3135;42.602;23.468;2022-08-19T07:35:58;92965.47;;;27.64;62.33
6204;BME280;3135;42.602;23.468;2022-08-19T07:38:24;92974.91;;;27.85;61.09
6204;BME280;3135;42.602;23.468;2022-08-19T07:40:50;92969.75;;;28.22;60.00
6204;BME280;3135;42.602;23.468;2022-08-19T07:43:16;92954.47;;;28.11;60.10
6204;BME280;3135;42.602;23.468;2022-08-19T07:45:45;92959.56;;;28.19;60.66
6204;BME280;3135;42.602;23.468;2022-08-19T07:48:12;92967.03;;;28.12;59.86
6204;BME280;3135;42.602;23.468;2022-08-19T07:50:39;92954.44;;;28.43;60.63
6204;BME280;3135;42.602;23.468;2022-08-19T07:53:04;92956.63;;;28.80;58.51
6204;BME280;3135;42.602;23.468;2022-08-19T07:55:30;92965.22;;;28.96;59.07
6204;BME280;3135;42.602;23.468;2022-08-19T07:57:56;92962.78;;;29.13;57.05
6204;BME280;3135;42.602;23.468;2022-08-19T08:00:21;92966.94;;;29.35;55.44
6204;BME280;3135;42.602;23.468;2022-08-19T08:02:47;92962.53;;;29.56;53.25
6204;BME280;3135;42.602;23.468;2022-08-19T08:05:12;92971.84;;;29.69;53.58
6204;BME280;3135;42.602;23.468;2022-08-19T08:07:56;92973.00;;;29.75;53.71
6204;BME280;3135;42.602;23.468;2022-08-19T08:10:40;92972.47;;;29.87;51.98
6204;BME280;3135;42.602;23.468;2022-08-19T08:13:06;92969.53;;;30.12;52.34
6204;BME280;3135;42.602;23.468;2022-08-19T08:15:31;92955.66;;;30.23;50.93
6204;BME280;3135;42.602;23.468;2022-08-19T08:17:57;92970.63;;;30.22;49.10
6204;BME280;3135;42.602;23.468;2022-08-19T08:20:23;92974.00;;;29.95;48.94
6204;BME280;3135;42.602;23.468;2022-08-19T08:22:49;92965.88;;;30.26;49.87
6204;BME280;3135;42.602;23.468;2022-08-19T08:25:34;92967.00;;;30.66;48.11
6204;BME280;3135;42.602;23.468;2022-08-19T08:28:01;92970.66;;;30.56;45.96
6204;BME280;3135;42.602;23.468;2022-08-19T08:30:28;92973.38;;;30.94;43.85
6204;BME280;3135;42.602;23.468;2022-08-19T08:32:55;92976.19;;;31.21;44.08
6204;BME280;3135;42.602;23.468;2022-08-19T08:35:22;92948.97;;;31.19;43.46
6204;BME280;3135;42.602;23.468;2022-08-19T08:37:50;92958.22;;;31.40;42.99
6204;BME280;3135;42.602;23.468;2022-08-19T08:40:26;92965.91;;;31.52;41.86
6204;BME280;3135;42.602;23.468;2022-08-19T08:45:33;92961.81;;;32.34;39.27
6204;BME280;3135;42.602;23.468;2022-08-19T08:48:06;92966.13;;;32.78;38.37
6204;BME280;3135;42.602;23.468;2022-08-19T08:50:40;92950.38;;;33.15;38.04
6204;BME280;3135;42.602;23.468;2022-08-19T08:53:08;92950.16;;;33.06;38.68
6204;BME280;3135;42.602;23.468;2022-08-19T08:55:35;92946.47;;;33.13;37.04
6204;BME280;3135;42.602;23.468;2022-08-19T08:58:03;92951.09;;;32.79;38.75
6204;BME280;3135;42.602;23.468;2022-08-19T09:00:33;92944.41;;;32.77;37.30
6204;BME280;3135;42.602;23.468;2022-08-19T09:03:01;92950.50;;;33.28;35.36
6204;BME280;3135;42.602;23.468;2022-08-19T09:05:39;92948.75;;;33.70;34.99
6204;BME280;3135;42.602;23.468;2022-08-19T09:08:27;92937.22;;;33.55;34.64
6204;BME280;3135;42.602;23.468;2022-08-19T09:10:58;92940.59;;;33.63;34.28
6204;BME280;3135;42.602;23.468;2022-08-19T09:16:20;92953.72;;;33.95;31.58
6204;BME280;3135;42.602;23.468;2022-08-19T09:18:52;92942.50;;;33.82;34.72
6204;BME280;3135;42.602;23.468;2022-08-19T09:21:19;92943.47;;;34.08;32.97
6204;BME280;3135;42.602;23.468;2022-08-19T09:23:45;92943.75;;;34.43;31.35
6204;BME280;3135;42.602;23.468;2022-08-19T09:26:13;92939.44;;;34.58;31.50
6204;BME280;3135;42.602;23.468;2022-08-19T09:28:40;92936.16;;;34.47;31.97
6204;BME280;3135;42.602;23.468;2022-08-19T09:31:26;92947.22;;;34.64;31.85
6204;BME280;3135;42.602;23.468;2022-08-19T09:33:53;92944.97;;;34.58;30.90
6204;BME280;3135;42.602;23.468;2022-08-19T09:36:23;92935.91;;;34.71;30.58
6204;BME280;3135;42.602;23.468;2022-08-19T09:38:51;92928.56;;;34.64;31.03
6204;BME280;3135;42.602;23.468;2022-08-19T09:41:22;92931.75;;;34.92;30.28
6204;BME280;3135;42.602;23.468;2022-08-19T09:43:50;92923.03;;;34.77;30.32
6204;BME280;3135;42.602;23.468;2022-08-19T09:46:21;92928.53;;;34.93;29.85
6204;BME280;3135;42.602;23.468;2022-08-19T09:48:48;92928.03;;;34.69;30.87
6204;BME280;3135;42.602;23.468;2022-08-19T09:51:17;92930.94;;;34.78;30.87
6204;BME280;3135;42.602;23.468;2022-08-19T09:53:44;92918.13;;;34.97;30.69
6204;BME280;3135;42.602;23.468;2022-08-19T09:56:11;92922.75;;;34.88;30.92
6204;BME280;3135;42.602;23.468;2022-08-19T09:58:38;92917.41;;;34.93;30.08
6204;BME280;3135;42.602;23.468;2022-08-19T10:01:06;92930.88;;;35.49;28.33
6204;BME280;3135;42.602;23.468;2022-08-19T10:03:33;92928.81;;;35.37;30.03
6204;BME280;3135;42.602;23.468;2022-08-19T10:06:02;92916.53;;;35.64;28.43
6204;BME280;3135;42.602;23.468;2022-08-19T10:08:30;92925.88;;;36.30;28.23
6204;BME280;3135;42.602;23.468;2022-08-19T10:10:57;92915.22;;;36.85;27.21
6204;BME280;3135;42.602;23.468;2022-08-19T10:13:25;92918.81;;;36.73;27.34
6204;BME280;3135;42.602;23.468;2022-08-19T10:15:53;92905.75;;;35.53;29.13
6204;BME280;3135;42.602;23.468;2022-08-19T10:18:20;92924.28;;;35.43;28.89
6204;BME280;3135;42.602;23.468;2022-08-19T10:20:47;92917.63;;;35.66;28.11
6204;BME280;3135;42.602;23.468;2022-08-19T10:23:14;92911.59;;;35.42;28.48
6204;BME280;3135;42.602;23.468;2022-08-19T10:25:40;92906.19;;;35.77;29.02
6204;BME280;3135;42.602;23.468;2022-08-19T10:28:06;92907.25;;;36.05;28.66
6204;BME280;3135;42.602;23.468;2022-08-19T10:30:33;92912.53;;;36.25;27.70
6204;BME280;3135;42.602;23.468;2022-08-19T10:32:58;92907.22;;;36.74;27.01
6204;BME280;3135;42.602;23.468;2022-08-19T10:35:24;92899.69;;;36.75;27.50
6204;BME280;3135;42.602;23.468;2022-08-19T10:37:52;92890.34;;;36.69;27.69
6204;BME280;3135;42.602;23.468;2022-08-19T10:40:18;92902.91;;;36.51;26.85
6204;BME280;3135;42.602;23.468;2022-08-19T10:42:43;92899.34;;;36.03;28.51
6204;BME280;3135;42.602;23.468;2022-08-19T10:45:10;92892.50;;;35.95;27.27
6204;BME280;3135;42.602;23.468;2022-08-19T10:47:36;92882.84;;;36.56;27.61
6204;BME280;3135;42.602;23.468;2022-08-19T10:50:02;92896.25;;;36.71;27.87
6204;BME280;3135;42.602;23.468;2022-08-19T10:52:49;92899.19;;;36.54;27.00
6204;BME280;3135;42.602;23.468;2022-08-19T10:55:15;92887.03;;;36.61;28.07
6204;BME280;3135;42.602;23.468;2022-08-19T10:58:17;92899.84;;;36.58;27.78
6204;BME280;3135;42.602;23.468;2022-08-19T11:00:43;92885.13;;;36.01;28.73
6204;BME280;3135;42.602;23.468;2022-08-19T11:03:15;92887.38;;;36.28;28.74
6204;BME280;3135;42.602;23.468;2022-08-19T11:05:41;92897.19;;;36.20;27.93
6204;BME280;3135;42.602;23.468;2022-08-19T11:08:08;92892.31;;;36.46;28.45
6204;BME280;3135;42.602;23.468;2022-08-19T11:10:37;92883.31;;;36.42;28.25
6204;BME280;3135;42.602;23.468;2022-08-19T11:13:02;92874.72;;;36.15;27.41
6204;BME280;3135;42.602;23.468;2022-08-19T11:15:28;92881.19;;;36.12;28.48
6204;BME280;3135;42.602;23.468;2022-08-19T11:17:54;92885.09;;;36.71;28.07
6204;BME280;3135;42.602;23.468;2022-08-19T11:20:20;92885.84;;;37.15;26.98
6204;BME280;3135;42.602;23.468;2022-08-19T11:22:46;92888.38;;;37.22;27.21
6204;BME280;3135;42.602;23.468;2022-08-19T11:25:13;92889.56;;;37.43;26.64
6204;BME280;3135;42.602;23.468;2022-08-19T11:27:41;92878.03;;;37.32;26.07
6204;BME280;3135;42.602;23.468;2022-08-19T11:30:09;92879.13;;;37.34;27.31
6204;BME280;3135;42.602;23.468;2022-08-19T11:32:35;92869.94;;;37.56;27.30
6204;BME280;3135;42.602;23.468;2022-08-19T11:35:00;92868.63;;;37.39;27.12
6204;BME280;3135;42.602;23.468;2022-08-19T11:37:25;92868.81;;;37.13;26.56
6204;BME280;3135;42.602;23.468;2022-08-19T11:39:52;92866.78;;;37.45;27.23
6204;BME280;3135;42.602;23.468;2022-08-19T11:42:17;92867.28;;;36.90;26.88
6204;BME280;3135;42.602;23.468;2022-08-19T11:45:02;92866.88;;;36.79;27.08
6204;BME280;3135;42.602;23.468;2022-08-19T11:47:29;92871.94;;;36.93;26.77
6204;BME280;3135;42.602;23.468;2022-08-19T11:49:55;92861.44;;;36.97;26.92
6204;BME280;3135;42.602;23.468;2022-08-19T11:52:21;92854.19;;;36.34;26.89
6204;BME280;3135;42.602;23.468;2022-08-19T11:54:47;92855.81;;;36.44;27.88
6204;BME280;3135;42.602;23.468;2022-08-19T11:57:12;92851.94;;;35.94;27.75
6204;BME280;3135;42.602;23.468;2022-08-19T11:59:42;92852.31;;;35.96;28.15
6204;BME280;3135;42.602;23.468;2022-08-19T12:02:07;92852.81;;;36.39;28.14
6204;BME280;3135;42.602;23.468;2022-08-19T12:04:32;92844.22;;;36.68;27.51
6204;BME280;3135;42.602;23.468;2022-08-19T12:06:58;92842.41;;;36.74;27.98
6204;BME280;3135;42.602;23.468;2022-08-19T12:09:23;92853.09;;;36.53;27.79
6204;BME280;3135;42.602;23.468;2022-08-19T12:11:49;92824.44;;;36.66;27.72
6204;BME280;3135;42.602;23.468;2022-08-19T12:14:15;92833.38;;;37.14;26.88
6204;BME280;3135;42.602;23.468;2022-08-19T12:16:44;92845.75;;;37.53;27.22
6204;BME280;3135;42.602;23.468;2022-08-19T12:19:10;92836.88;;;36.52;27.14
6204;BME280;3135;42.602;23.468;2022-08-19T12:21:36;92834.88;;;36.83;27.55
6204;BME280;3135;42.602;23.468;2022-08-19T12:24:03;92842.78;;;36.41;27.54
6204;BME280;3135;42.602;23.468;2022-08-19T12:26:30;92826.59;;;36.27;28.54
6204;BME280;3135;42.602;23.468;2022-08-19T12:28:56;92819.50;;;36.48;28.14
6204;BME280;3135;42.602;23.468;2022-08-19T12:31:25;92812.34;;;36.69;28.49
6204;BME280;3135;42.602;23.468;2022-08-19T12:33:51;92825.31;;;36.84;28.43
6204;BME280;3135;42.602;23.468;2022-08-19T12:36:17;92822.41;;;36.66;27.46
6204;BME280;3135;42.602;23.468;2022-08-19T12:38:43;92814.03;;;36.00;28.71
6204;BME280;3135;42.602;23.468;2022-08-19T12:41:12;92809.38;;;36.19;29.96
6204;BME280;3135;42.602;23.468;2022-08-19T12:43:38;92814.88;;;36.76;28.49
6204;BME280;3135;42.602;23.468;2022-08-19T12:46:05;92789.81;;;36.76;27.74
6204;BME280;3135;42.602;23.468;2022-08-19T12:48:35;92813.94;;;37.01;27.71
6204;BME280;3135;42.602;23.468;2022-08-19T12:51:06;92803.53;;;36.92;27.04
6204;BME280;3135;42.602;23.468;2022-08-19T12:53:32;92792.97;;;36.56;27.53
6204;BME280;3135;42.602;23.468;2022-08-19T12:55:58;92813.81;;;36.51;28.47
6204;BME280;3135;42.602;23.468;2022-08-19T12:58:25;92807.97;;;36.58;27.94
6204;BME280;3135;42.602;23.468;2022-08-19T13:00:51;92812.50;;;36.65;27.40
6204;BME280;3135;42.602;23.468;2022-08-19T13:03:17;92796.84;;;36.90;28.02
6204;BME280;3135;42.602;23.468;2022-08-19T13:05:42;92800.91;;;37.29;28.48
6204;BME280;3135;42.602;23.468;2022-08-19T13:08:08;92798.41;;;37.71;26.75
6204;BME280;3135;42.602;23.468;2022-08-19T13:10:35;92795.72;;;37.49;26.76
6204;BME280;3135;42.602;23.468;2022-08-19T13:13:07;92805.34;;;37.57;27.34
6204;BME280;3135;42.602;23.468;2022-08-19T13:15:34;92806.22;;;37.45;27.20
6204;BME280;3135;42.602;23.468;2022-08-19T13:18:00;92802.28;;;37.65;26.92
6204;BME280;3135;42.602;23.468;2022-08-19T13:20:26;92790.84;;;37.99;27.58